sensor_id;sensor_type;location;lat;lon;timestamp;temperature;humidity
16074;DHT22;8141;52.664;5.074;2023-05-27T00:00:07;21.20;50.70
16074;DHT22;8141;52.664;5.074;2023-05-27T00:02:34;21.30;50.80
16074;DHT22;8141;52.664;5.074;2023-05-27T00:05:00;21.20;50.70
16074;DHT22;8141;52.664;5.074;2023-05-27T00:07:26;21.20;50.90
16074;DHT22;8141;52.664;5.074;2023-05-27T00:09:53;21.30;50.90
16074;DHT22;8141;52.664;5.074;2023-05-27T00:12:20;21.30;50.90
16074;DHT22;8141;52.664;5.074;2023-05-27T00:14:46;21.30;51.00
16074;DHT22;8141;52.664;5.074;2023-05-27T00:17:12;21.30;51.00
16074;DHT22;8141;52.664;5.074;2023-05-27T00:19:41;21.30;51.10
16074;DHT22;8141;52.664;5.074;2023-05-27T00:22:11;21.30;51.10
16074;DHT22;8141;52.664;5.074;2023-05-27T00:24:37;21.30;51.20
16074;DHT22;8141;52.664;5.074;2023-05-27T00:27:08;21.30;51.20
16074;DHT22;8141;52.664;5.074;2023-05-27T00:29:35;21.30;51.30
16074;DHT22;8141;52.664;5.074;2023-05-27T00:32:02;21.30;51.30
16074;DHT22;8141;52.664;5.074;2023-05-27T00:34:29;21.30;51.20
16074;DHT22;8141;52.664;5.074;2023-05-27T00:36:55;21.30;51.40
16074;DHT22;8141;52.664;5.074;2023-05-27T00:39:21;21.30;51.40
16074;DHT22;8141;52.664;5.074;2023-05-27T00:41:48;21.30;51.40
16074;DHT22;8141;52.664;5.074;2023-05-27T00:44:16;21.40;51.40
16074;DHT22;8141;52.664;5.074;2023-05-27T00:46:43;21.40;51.50
16074;DHT22;8141;52.664;5.074;2023-05-27T00:49:10;21.30;51.30
16074;DHT22;8141;52.664;5.074;2023-05-27T00:51:37;21.30;51.90
16074;DHT22;8141;52.664;5.074;2023-05-27T00:54:03;21.30;51.40
16074;DHT22;8141;52.664;5.074;2023-05-27T00:56:29;21.30;51.40
16074;DHT22;8141;52.664;5.074;2023-05-27T00:58:55;21.30;51.40
16074;DHT22;8141;52.664;5.074;2023-05-27T01:01:21;21.30;51.40
16074;DHT22;8141;52.664;5.074;2023-05-27T01:03:51;21.40;51.50
16074;DHT22;8141;52.664;5.074;2023-05-27T01:06:54;21.30;51.60
16074;DHT22;8141;52.664;5.074;2023-05-27T01:14:34;21.30;51.70
16074;DHT22;8141;52.664;5.074;2023-05-27T01:17:05;21.30;52.30
16074;DHT22;8141;52.664;5.074;2023-05-27T01:19:39;21.30;51.70
16074;DHT22;8141;52.664;5.074;2023-05-27T01:22:08;21.30;51.70
16074;DHT22;8141;52.664;5.074;2023-05-27T01:24:39;21.30;51.70
16074;DHT22;8141;52.664;5.074;2023-05-27T01:27:07;21.30;51.70
16074;DHT22;8141;52.664;5.074;2023-05-27T01:29:34;21.30;51.80
16074;DHT22;8141;52.664;5.074;2023-05-27T01:34:59;21.30;51.80
16074;DHT22;8141;52.664;5.074;2023-05-27T01:37:41;21.30;51.80
16074;DHT22;8141;52.664;5.074;2023-05-27T01:40:09;21.30;51.80
16074;DHT22;8141;52.664;5.074;2023-05-27T01:42:37;21.30;51.90
16074;DHT22;8141;52.664;5.074;2023-05-27T01:45:05;21.30;51.80
16074;DHT22;8141;52.664;5.074;2023-05-27T01:47:33;21.30;51.90
16074;DHT22;8141;52.664;5.074;2023-05-27T01:49:59;21.30;51.90
16074;DHT22;8141;52.664;5.074;2023-05-27T01:52:25;21.30;51.90
16074;DHT22;8141;52.664;5.074;2023-05-27T01:54:51;21.30;52.00
16074;DHT22;8141;52.664;5.074;2023-05-27T01:57:18;21.30;51.90
16074;DHT22;8141;52.664;5.074;2023-05-27T01:59:44;21.30;52.00
16074;DHT22;8141;52.664;5.074;2023-05-27T02:02:10;21.30;52.00
16074;DHT22;8141;52.664;5.074;2023-05-27T02:04:36;21.40;52.10
16074;DHT22;8141;52.664;5.074;2023-05-27T02:07:02;21.40;52.00
16074;DHT22;8141;52.664;5.074;2023-05-27T02:09:28;21.30;52.10
16074;DHT22;8141;52.664;5.074;2023-05-27T02:11:54;21.30;52.10
16074;DHT22;8141;52.664;5.074;2023-05-27T02:14:20;21.30;52.20
16074;DHT22;8141;52.664;5.074;2023-05-27T02:16:46;21.30;52.20
16074;DHT22;8141;52.664;5.074;2023-05-27T02:19:15;21.30;52.20
16074;DHT22;8141;52.664;5.074;2023-05-27T02:21:41;21.30;52.20
16074;DHT22;8141;52.664;5.074;2023-05-27T02:24:07;21.30;52.20
16074;DHT22;8141;52.664;5.074;2023-05-27T02:26:33;21.30;52.20
16074;DHT22;8141;52.664;5.074;2023-05-27T02:28:59;21.40;52.30
16074;DHT22;8141;52.664;5.074;2023-05-27T02:31:25;21.30;52.20
16074;DHT22;8141;52.664;5.074;2023-05-27T02:33:51;21.30;52.20
16074;DHT22;8141;52.664;5.074;2023-05-27T02:36:16;21.30;52.20
16074;DHT22;8141;52.664;5.074;2023-05-27T02:38:42;21.30;52.20
16074;DHT22;8141;52.664;5.074;2023-05-27T02:41:09;21.30;52.10
16074;DHT22;8141;52.664;5.074;2023-05-27T02:43:35;21.40;52.30
16074;DHT22;8141;52.664;5.074;2023-05-27T02:46:01;21.30;52.20
16074;DHT22;8141;52.664;5.074;2023-05-27T02:48:27;21.40;52.30
16074;DHT22;8141;52.664;5.074;2023-05-27T02:50:52;21.40;52.30
16074;DHT22;8141;52.664;5.074;2023-05-27T02:53:18;21.40;52.30
16074;DHT22;8141;52.664;5.074;2023-05-27T02:55:44;21.30;52.30
16074;DHT22;8141;52.664;5.074;2023-05-27T02:58:09;21.40;52.30
16074;DHT22;8141;52.664;5.074;2023-05-27T03:00:35;21.30;52.20
16074;DHT22;8141;52.664;5.074;2023-05-27T03:03:01;21.40;52.30
16074;DHT22;8141;52.664;5.074;2023-05-27T03:05:30;21.30;52.30
16074;DHT22;8141;52.664;5.074;2023-05-27T03:07:56;21.30;52.40
16074;DHT22;8141;52.664;5.074;2023-05-27T03:10:22;21.30;52.50
16074;DHT22;8141;52.664;5.074;2023-05-27T03:12:47;21.30;52.50
16074;DHT22;8141;52.664;5.074;2023-05-27T03:15:13;21.40;52.70
16074;DHT22;8141;52.664;5.074;2023-05-27T03:17:40;21.40;52.70
16074;DHT22;8141;52.664;5.074;2023-05-27T03:20:06;21.40;52.70
16074;DHT22;8141;52.664;5.074;2023-05-27T03:22:34;21.30;52.60
16074;DHT22;8141;52.664;5.074;2023-05-27T03:25:02;21.30;52.50
16074;DHT22;8141;52.664;5.074;2023-05-27T03:27:27;21.40;52.70
16074;DHT22;8141;52.664;5.074;2023-05-27T03:29:53;21.40;52.70
16074;DHT22;8141;52.664;5.074;2023-05-27T03:32:19;21.40;52.70
16074;DHT22;8141;52.664;5.074;2023-05-27T03:34:45;21.40;52.60
16074;DHT22;8141;52.664;5.074;2023-05-27T03:37:10;21.40;52.70
16074;DHT22;8141;52.664;5.074;2023-05-27T03:39:36;21.30;52.60
16074;DHT22;8141;52.664;5.074;2023-05-27T03:42:02;21.30;53.30
16074;DHT22;8141;52.664;5.074;2023-05-27T03:44:28;21.40;52.70
16074;DHT22;8141;52.664;5.074;2023-05-27T03:46:54;21.40;52.70
16074;DHT22;8141;52.664;5.074;2023-05-27T03:49:20;21.40;52.70
16074;DHT22;8141;52.664;5.074;2023-05-27T03:51:46;21.40;52.70
16074;DHT22;8141;52.664;5.074;2023-05-27T03:54:12;21.40;52.70
16074;DHT22;8141;52.664;5.074;2023-05-27T03:56:38;21.30;52.60
16074;DHT22;8141;52.664;5.074;2023-05-27T03:59:04;21.40;52.70
16074;DHT22;8141;52.664;5.074;2023-05-27T04:01:31;21.40;52.70
16074;DHT22;8141;52.664;5.074;2023-05-27T04:03:57;21.30;52.60
16074;DHT22;8141;52.664;5.074;2023-05-27T04:06:23;21.30;52.60
16074;DHT22;8141;52.664;5.074;2023-05-27T04:08:49;21.40;52.70
16074;DHT22;8141;52.664;5.074;2023-05-27T04:11:15;21.30;52.60
16074;DHT22;8141;52.664;5.074;2023-05-27T04:13:41;21.30;52.60
16074;DHT22;8141;52.664;5.074;2023-05-27T04:16:06;21.40;52.80
16074;DHT22;8141;52.664;5.074;2023-05-27T04:18:33;21.30;52.80
16074;DHT22;8141;52.664;5.074;2023-05-27T04:21:01;21.30;52.70
16074;DHT22;8141;52.664;5.074;2023-05-27T04:23:26;21.40;52.80
16074;DHT22;8141;52.664;5.074;2023-05-27T04:25:52;21.40;52.80
16074;DHT22;8141;52.664;5.074;2023-05-27T04:28:18;21.40;52.70
16074;DHT22;8141;52.664;5.074;2023-05-27T04:30:44;21.40;52.90
16074;DHT22;8141;52.664;5.074;2023-05-27T04:33:15;21.40;52.90
16074;DHT22;8141;52.664;5.074;2023-05-27T04:35:41;21.40;52.90
16074;DHT22;8141;52.664;5.074;2023-05-27T04:38:10;21.30;52.90
16074;DHT22;8141;52.664;5.074;2023-05-27T04:40:42;21.40;52.90
16074;DHT22;8141;52.664;5.074;2023-05-27T04:43:11;21.40;53.00
16074;DHT22;8141;52.664;5.074;2023-05-27T04:45:39;21.40;53.00
16074;DHT22;8141;52.664;5.074;2023-05-27T04:48:05;21.40;53.00
16074;DHT22;8141;52.664;5.074;2023-05-27T04:50:31;21.30;53.00
16074;DHT22;8141;52.664;5.074;2023-05-27T04:52:57;21.40;53.00
16074;DHT22;8141;52.664;5.074;2023-05-27T04:55:23;21.30;52.90
16074;DHT22;8141;52.664;5.074;2023-05-27T04:57:49;21.40;53.00
16074;DHT22;8141;52.664;5.074;2023-05-27T05:00:15;21.30;53.00
16074;DHT22;8141;52.664;5.074;2023-05-27T05:02:48;21.30;53.00
16074;DHT22;8141;52.664;5.074;2023-05-27T05:05:14;21.40;53.10
16074;DHT22;8141;52.664;5.074;2023-05-27T05:07:41;21.40;53.20
16074;DHT22;8141;52.664;5.074;2023-05-27T05:10:10;21.40;53.20
16074;DHT22;8141;52.664;5.074;2023-05-27T05:12:36;21.30;53.00
16074;DHT22;8141;52.664;5.074;2023-05-27T05:15:04;21.40;53.20
16074;DHT22;8141;52.664;5.074;2023-05-27T05:17:30;21.40;53.10
16074;DHT22;8141;52.664;5.074;2023-05-27T05:19:56;21.40;53.10
16074;DHT22;8141;52.664;5.074;2023-05-27T05:22:22;21.40;53.10
16074;DHT22;8141;52.664;5.074;2023-05-27T05:24:52;21.30;53.60
16074;DHT22;8141;52.664;5.074;2023-05-27T05:27:18;21.30;53.10
16074;DHT22;8141;52.664;5.074;2023-05-27T05:29:44;21.40;53.70
16074;DHT22;8141;52.664;5.074;2023-05-27T05:32:10;21.30;53.70
16074;DHT22;8141;52.664;5.074;2023-05-27T05:34:37;21.40;53.20
16074;DHT22;8141;52.664;5.074;2023-05-27T05:37:04;21.40;53.40
16074;DHT22;8141;52.664;5.074;2023-05-27T05:39:30;21.40;53.20
16074;DHT22;8141;52.664;5.074;2023-05-27T05:41:56;21.40;53.20
16074;DHT22;8141;52.664;5.074;2023-05-27T05:44:23;21.40;53.20
16074;DHT22;8141;52.664;5.074;2023-05-27T05:46:49;21.40;53.20
16074;DHT22;8141;52.664;5.074;2023-05-27T05:49:17;21.40;53.10
16074;DHT22;8141;52.664;5.074;2023-05-27T05:51:44;21.40;53.80
16074;DHT22;8141;52.664;5.074;2023-05-27T05:54:09;21.40;53.20
16074;DHT22;8141;52.664;5.074;2023-05-27T05:56:35;21.40;53.10
16074;DHT22;8141;52.664;5.074;2023-05-27T05:59:01;21.40;53.00
16074;DHT22;8141;52.664;5.074;2023-05-27T06:01:26;21.40;53.20
16074;DHT22;8141;52.664;5.074;2023-05-27T06:03:53;21.40;53.10
16074;DHT22;8141;52.664;5.074;2023-05-27T06:06:20;21.40;53.10
16074;DHT22;8141;52.664;5.074;2023-05-27T06:08:45;21.40;53.10
16074;DHT22;8141;52.664;5.074;2023-05-27T06:11:12;21.40;53.10
16074;DHT22;8141;52.664;5.074;2023-05-27T06:13:38;21.40;53.30
16074;DHT22;8141;52.664;5.074;2023-05-27T06:16:04;21.40;53.40
16074;DHT22;8141;52.664;5.074;2023-05-27T06:18:30;21.40;53.60
16074;DHT22;8141;52.664;5.074;2023-05-27T06:20:56;21.40;53.70
16074;DHT22;8141;52.664;5.074;2023-05-27T06:23:21;21.40;53.50
16074;DHT22;8141;52.664;5.074;2023-05-27T06:25:47;21.40;53.50
16074;DHT22;8141;52.664;5.074;2023-05-27T06:28:13;21.40;53.50
16074;DHT22;8141;52.664;5.074;2023-05-27T06:30:39;21.40;53.60
16074;DHT22;8141;52.664;5.074;2023-05-27T06:33:05;21.40;53.50
16074;DHT22;8141;52.664;5.074;2023-05-27T06:35:31;21.50;53.60
16074;DHT22;8141;52.664;5.074;2023-05-27T06:37:58;21.40;53.50
16074;DHT22;8141;52.664;5.074;2023-05-27T06:40:24;21.40;53.60
16074;DHT22;8141;52.664;5.074;2023-05-27T06:42:50;21.40;53.60
16074;DHT22;8141;52.664;5.074;2023-05-27T06:45:16;21.50;53.60
16074;DHT22;8141;52.664;5.074;2023-05-27T06:47:42;21.40;53.70
16074;DHT22;8141;52.664;5.074;2023-05-27T06:50:08;21.50;53.70
16074;DHT22;8141;52.664;5.074;2023-05-27T06:52:34;21.40;53.70
16074;DHT22;8141;52.664;5.074;2023-05-27T06:55:00;21.40;53.60
16074;DHT22;8141;52.664;5.074;2023-05-27T06:57:26;21.50;53.80
16074;DHT22;8141;52.664;5.074;2023-05-27T06:59:51;21.50;53.70
16074;DHT22;8141;52.664;5.074;2023-05-27T07:02:17;21.50;53.70
16074;DHT22;8141;52.664;5.074;2023-05-27T07:04:43;21.50;53.60
16074;DHT22;8141;52.664;5.074;2023-05-27T07:07:09;21.50;53.70
16074;DHT22;8141;52.664;5.074;2023-05-27T07:09:34;21.50;53.80
16074;DHT22;8141;52.664;5.074;2023-05-27T07:12:01;21.50;54.40
16074;DHT22;8141;52.664;5.074;2023-05-27T07:14:27;21.50;53.80
16074;DHT22;8141;52.664;5.074;2023-05-27T07:16:53;21.50;53.70
16074;DHT22;8141;52.664;5.074;2023-05-27T07:19:18;21.50;53.80
16074;DHT22;8141;52.664;5.074;2023-05-27T07:21:44;21.50;53.80
16074;DHT22;8141;52.664;5.074;2023-05-27T07:24:10;21.50;53.80
16074;DHT22;8141;52.664;5.074;2023-05-27T07:26:36;21.50;53.80
16074;DHT22;8141;52.664;5.074;2023-05-27T07:29:02;21.50;53.80
16074;DHT22;8141;52.664;5.074;2023-05-27T07:31:29;21.50;53.80
16074;DHT22;8141;52.664;5.074;2023-05-27T07:33:55;21.50;53.80
16074;DHT22;8141;52.664;5.074;2023-05-27T07:36:21;21.50;53.90
16074;DHT22;8141;52.664;5.074;2023-05-27T07:38:47;21.50;54.00
16074;DHT22;8141;52.664;5.074;2023-05-27T07:41:13;21.50;54.00
16074;DHT22;8141;52.664;5.074;2023-05-27T07:43:39;21.50;54.00
16074;DHT22;8141;52.664;5.074;2023-05-27T07:46:05;21.50;54.10
16074;DHT22;8141;52.664;5.074;2023-05-27T07:48:31;21.50;54.00
16074;DHT22;8141;52.664;5.074;2023-05-27T07:50:57;21.50;54.10
16074;DHT22;8141;52.664;5.074;2023-05-27T07:53:23;21.50;53.90
16074;DHT22;8141;52.664;5.074;2023-05-27T07:55:48;21.50;53.80
16074;DHT22;8141;52.664;5.074;2023-05-27T07:58:14;21.60;52.80
16074;DHT22;8141;52.664;5.074;2023-05-27T08:00:40;21.50;52.00
16074;DHT22;8141;52.664;5.074;2023-05-27T08:03:06;21.50;51.90
16074;DHT22;8141;52.664;5.074;2023-05-27T08:05:32;21.50;51.80
16074;DHT22;8141;52.664;5.074;2023-05-27T08:07:59;21.40;51.30
16074;DHT22;8141;52.664;5.074;2023-05-27T08:10:25;21.40;51.40
16074;DHT22;8141;52.664;5.074;2023-05-27T08:12:51;21.40;51.20
16074;DHT22;8141;52.664;5.074;2023-05-27T08:15:17;21.40;51.30
16074;DHT22;8141;52.664;5.074;2023-05-27T08:17:43;21.40;51.30
16074;DHT22;8141;52.664;5.074;2023-05-27T08:20:12;21.40;51.20
16074;DHT22;8141;52.664;5.074;2023-05-27T08:22:38;21.40;50.60
16074;DHT22;8141;52.664;5.074;2023-05-27T08:25:04;21.40;50.80
16074;DHT22;8141;52.664;5.074;2023-05-27T08:30:13;21.40;50.60
16074;DHT22;8141;52.664;5.074;2023-05-27T08:32:42;21.40;50.50
16074;DHT22;8141;52.664;5.074;2023-05-27T08:35:09;21.30;50.20
16074;DHT22;8141;52.664;5.074;2023-05-27T08:37:35;21.30;50.40
16074;DHT22;8141;52.664;5.074;2023-05-27T08:40:02;21.30;50.30
16074;DHT22;8141;52.664;5.074;2023-05-27T08:42:36;21.30;50.00
16074;DHT22;8141;52.664;5.074;2023-05-27T08:45:02;21.30;50.00
16074;DHT22;8141;52.664;5.074;2023-05-27T08:47:28;21.30;50.40
16074;DHT22;8141;52.664;5.074;2023-05-27T08:49:55;21.30;50.10
16074;DHT22;8141;52.664;5.074;2023-05-27T08:52:21;21.30;50.20
16074;DHT22;8141;52.664;5.074;2023-05-27T08:54:49;21.30;50.30
16074;DHT22;8141;52.664;5.074;2023-05-27T08:57:17;21.30;50.90
16074;DHT22;8141;52.664;5.074;2023-05-27T08:59:46;21.30;50.20
16074;DHT22;8141;52.664;5.074;2023-05-27T09:02:12;21.30;50.00
16074;DHT22;8141;52.664;5.074;2023-05-27T09:04:39;21.30;50.00
16074;DHT22;8141;52.664;5.074;2023-05-27T09:07:08;21.30;49.80
16074;DHT22;8141;52.664;5.074;2023-05-27T09:09:33;21.30;49.70
16074;DHT22;8141;52.664;5.074;2023-05-27T09:12:02;21.30;49.80
16074;DHT22;8141;52.664;5.074;2023-05-27T09:14:29;21.30;50.00
16074;DHT22;8141;52.664;5.074;2023-05-27T09:16:55;21.30;49.80
16074;DHT22;8141;52.664;5.074;2023-05-27T09:19:21;21.30;49.90
16074;DHT22;8141;52.664;5.074;2023-05-27T09:21:52;21.30;49.90
16074;DHT22;8141;52.664;5.074;2023-05-27T09:24:23;21.30;49.90
16074;DHT22;8141;52.664;5.074;2023-05-27T09:26:54;21.30;49.90
16074;DHT22;8141;52.664;5.074;2023-05-27T09:29:24;21.30;49.80
16074;DHT22;8141;52.664;5.074;2023-05-27T09:31:54;21.30;49.80
16074;DHT22;8141;52.664;5.074;2023-05-27T09:34:23;21.40;49.80
16074;DHT22;8141;52.664;5.074;2023-05-27T09:36:50;21.30;49.80
16074;DHT22;8141;52.664;5.074;2023-05-27T09:39:21;21.40;49.80
16074;DHT22;8141;52.664;5.074;2023-05-27T09:41:52;21.40;49.80
16074;DHT22;8141;52.664;5.074;2023-05-27T09:44:19;21.40;49.80
16074;DHT22;8141;52.664;5.074;2023-05-27T09:46:45;21.40;49.80
16074;DHT22;8141;52.664;5.074;2023-05-27T09:49:14;21.40;49.70
16074;DHT22;8141;52.664;5.074;2023-05-27T09:51:43;21.40;49.80
16074;DHT22;8141;52.664;5.074;2023-05-27T09:54:12;21.40;49.60
16074;DHT22;8141;52.664;5.074;2023-05-27T09:56:44;21.40;49.60
16074;DHT22;8141;52.664;5.074;2023-05-27T09:59:11;21.40;49.50
16074;DHT22;8141;52.664;5.074;2023-05-27T10:01:38;21.40;49.60
16074;DHT22;8141;52.664;5.074;2023-05-27T10:04:06;21.40;49.70
16074;DHT22;8141;52.664;5.074;2023-05-27T10:06:33;21.40;50.30
16074;DHT22;8141;52.664;5.074;2023-05-27T10:09:01;21.40;49.80
16074;DHT22;8141;52.664;5.074;2023-05-27T10:11:32;21.40;49.70
16074;DHT22;8141;52.664;5.074;2023-05-27T10:14:01;21.50;49.80
16074;DHT22;8141;52.664;5.074;2023-05-27T10:16:27;21.50;49.80
16074;DHT22;8141;52.664;5.074;2023-05-27T10:18:55;21.50;49.80
16074;DHT22;8141;52.664;5.074;2023-05-27T10:21:22;21.50;49.80
16074;DHT22;8141;52.664;5.074;2023-05-27T10:24:01;21.50;49.70
16074;DHT22;8141;52.664;5.074;2023-05-27T10:26:44;21.50;49.70
16074;DHT22;8141;52.664;5.074;2023-05-27T10:29:15;21.40;49.70
16074;DHT22;8141;52.664;5.074;2023-05-27T10:31:50;21.50;49.70
16074;DHT22;8141;52.664;5.074;2023-05-27T10:34:16;21.50;49.70
16074;DHT22;8141;52.664;5.074;2023-05-27T10:36:46;21.50;49.50
16074;DHT22;8141;52.664;5.074;2023-05-27T10:39:23;21.50;49.50
16074;DHT22;8141;52.664;5.074;2023-05-27T10:41:54;21.50;49.50
16074;DHT22;8141;52.664;5.074;2023-05-27T10:44:33;21.50;49.60
16074;DHT22;8141;52.664;5.074;2023-05-27T10:47:04;21.50;49.60
16074;DHT22;8141;52.664;5.074;2023-05-27T10:49:35;21.50;49.60
16074;DHT22;8141;52.664;5.074;2023-05-27T10:52:12;21.50;49.50
16074;DHT22;8141;52.664;5.074;2023-05-27T10:54:44;21.50;49.50
16074;DHT22;8141;52.664;5.074;2023-05-27T10:57:14;21.50;49.40
16074;DHT22;8141;52.664;5.074;2023-05-27T10:59:47;21.50;49.50
16074;DHT22;8141;52.664;5.074;2023-05-27T11:02:20;21.50;49.30
16074;DHT22;8141;52.664;5.074;2023-05-27T11:04:49;21.50;49.30
16074;DHT22;8141;52.664;5.074;2023-05-27T11:07:20;21.50;49.40
16074;DHT22;8141;52.664;5.074;2023-05-27T11:09:48;21.50;49.50
16074;DHT22;8141;52.664;5.074;2023-05-27T11:12:16;21.50;49.50
16074;DHT22;8141;52.664;5.074;2023-05-27T11:14:43;21.50;50.10
16074;DHT22;8141;52.664;5.074;2023-05-27T11:17:11;21.50;49.50
16074;DHT22;8141;52.664;5.074;2023-05-27T11:19:39;21.60;49.50
16074;DHT22;8141;52.664;5.074;2023-05-27T11:22:06;21.50;49.50
16074;DHT22;8141;52.664;5.074;2023-05-27T11:24:33;21.60;49.50
16074;DHT22;8141;52.664;5.074;2023-05-27T11:26:58;21.50;49.10
16074;DHT22;8141;52.664;5.074;2023-05-27T11:29:25;21.50;49.10
16074;DHT22;8141;52.664;5.074;2023-05-27T11:31:53;21.50;49.20
16074;DHT22;8141;52.664;5.074;2023-05-27T11:34:19;21.50;49.90
16074;DHT22;8141;52.664;5.074;2023-05-27T11:36:49;21.50;49.20
16074;DHT22;8141;52.664;5.074;2023-05-27T11:39:15;21.50;49.30
16074;DHT22;8141;52.664;5.074;2023-05-27T11:41:51;21.50;49.50
16074;DHT22;8141;52.664;5.074;2023-05-27T11:44:19;21.60;49.50
16074;DHT22;8141;52.664;5.074;2023-05-27T11:46:47;21.50;49.50
16074;DHT22;8141;52.664;5.074;2023-05-27T11:49:14;21.50;49.40
16074;DHT22;8141;52.664;5.074;2023-05-27T11:51:53;21.60;49.50
16074;DHT22;8141;52.664;5.074;2023-05-27T11:54:26;21.50;49.20
16074;DHT22;8141;52.664;5.074;2023-05-27T11:56:54;21.50;49.20
16074;DHT22;8141;52.664;5.074;2023-05-27T11:59:22;21.60;49.10
16074;DHT22;8141;52.664;5.074;2023-05-27T12:01:49;21.50;49.10
16074;DHT22;8141;52.664;5.074;2023-05-27T12:04:15;21.50;49.30
16074;DHT22;8141;52.664;5.074;2023-05-27T12:06:42;21.50;49.20
16074;DHT22;8141;52.664;5.074;2023-05-27T12:09:09;21.50;49.30
16074;DHT22;8141;52.664;5.074;2023-05-27T12:11:36;21.50;49.20
16074;DHT22;8141;52.664;5.074;2023-05-27T12:14:03;21.50;49.50
16074;DHT22;8141;52.664;5.074;2023-05-27T12:16:29;21.50;49.60
16074;DHT22;8141;52.664;5.074;2023-05-27T12:18:55;21.50;49.70
16074;DHT22;8141;52.664;5.074;2023-05-27T12:21:21;21.50;49.70
16074;DHT22;8141;52.664;5.074;2023-05-27T12:23:47;21.60;49.60
16074;DHT22;8141;52.664;5.074;2023-05-27T12:26:14;21.50;49.30
16074;DHT22;8141;52.664;5.074;2023-05-27T12:28:41;21.50;49.70
16074;DHT22;8141;52.664;5.074;2023-05-27T12:31:07;21.50;49.60
16074;DHT22;8141;52.664;5.074;2023-05-27T12:33:33;21.50;49.90
16074;DHT22;8141;52.664;5.074;2023-05-27T12:35:59;21.60;50.20
16074;DHT22;8141;52.664;5.074;2023-05-27T12:38:26;21.60;50.10
16074;DHT22;8141;52.664;5.074;2023-05-27T12:40:52;21.60;50.10
16074;DHT22;8141;52.664;5.074;2023-05-27T12:43:18;21.50;50.20
16074;DHT22;8141;52.664;5.074;2023-05-27T12:45:45;21.50;50.20
16074;DHT22;8141;52.664;5.074;2023-05-27T12:48:15;21.50;50.40
16074;DHT22;8141;52.664;5.074;2023-05-27T12:50:40;21.50;50.40
16074;DHT22;8141;52.664;5.074;2023-05-27T12:53:08;21.60;50.40
16074;DHT22;8141;52.664;5.074;2023-05-27T12:55:34;21.60;50.60
16074;DHT22;8141;52.664;5.074;2023-05-27T12:58:00;21.60;50.60
16074;DHT22;8141;52.664;5.074;2023-05-27T13:00:27;21.60;50.70
16074;DHT22;8141;52.664;5.074;2023-05-27T13:02:53;21.50;50.70
16074;DHT22;8141;52.664;5.074;2023-05-27T13:05:19;21.60;50.80
16074;DHT22;8141;52.664;5.074;2023-05-27T13:08:04;21.60;51.10
16074;DHT22;8141;52.664;5.074;2023-05-27T13:10:31;21.60;51.10
16074;DHT22;8141;52.664;5.074;2023-05-27T13:12:58;21.60;51.20
16074;DHT22;8141;52.664;5.074;2023-05-27T13:15:25;21.60;51.10
16074;DHT22;8141;52.664;5.074;2023-05-27T13:17:52;21.60;51.30
16074;DHT22;8141;52.664;5.074;2023-05-27T13:20:19;21.60;51.30
16074;DHT22;8141;52.664;5.074;2023-05-27T13:22:47;21.60;51.20
16074;DHT22;8141;52.664;5.074;2023-05-27T13:25:14;21.60;51.30
16074;DHT22;8141;52.664;5.074;2023-05-27T13:27:40;21.60;51.20
16074;DHT22;8141;52.664;5.074;2023-05-27T13:30:14;21.60;51.30
16074;DHT22;8141;52.664;5.074;2023-05-27T13:32:41;21.60;51.30
16074;DHT22;8141;52.664;5.074;2023-05-27T13:35:08;21.60;51.40
16074;DHT22;8141;52.664;5.074;2023-05-27T13:37:36;21.60;51.40
16074;DHT22;8141;52.664;5.074;2023-05-27T13:40:04;21.60;51.40
16074;DHT22;8141;52.664;5.074;2023-05-27T13:42:31;21.60;51.50
16074;DHT22;8141;52.664;5.074;2023-05-27T13:44:56;21.60;51.40
16074;DHT22;8141;52.664;5.074;2023-05-27T13:47:22;21.60;51.60
16074;DHT22;8141;52.664;5.074;2023-05-27T13:49:48;21.60;51.60
16074;DHT22;8141;52.664;5.074;2023-05-27T13:52:15;21.60;51.70
16074;DHT22;8141;52.664;5.074;2023-05-27T13:54:41;21.60;51.60
16074;DHT22;8141;52.664;5.074;2023-05-27T13:57:07;21.60;51.80
16074;DHT22;8141;52.664;5.074;2023-05-27T13:59:32;21.60;51.80
16074;DHT22;8141;52.664;5.074;2023-05-27T14:01:58;21.60;51.60
16074;DHT22;8141;52.664;5.074;2023-05-27T14:04:24;21.60;51.60
16074;DHT22;8141;52.664;5.074;2023-05-27T14:06:50;21.60;51.60
16074;DHT22;8141;52.664;5.074;2023-05-27T14:09:16;21.60;51.60
16074;DHT22;8141;52.664;5.074;2023-05-27T14:11:41;21.60;51.70
16074;DHT22;8141;52.664;5.074;2023-05-27T14:14:07;21.60;51.90
16074;DHT22;8141;52.664;5.074;2023-05-27T14:16:33;21.60;52.00
16074;DHT22;8141;52.664;5.074;2023-05-27T14:18:58;21.60;52.00
16074;DHT22;8141;52.664;5.074;2023-05-27T14:21:24;21.60;52.00
16074;DHT22;8141;52.664;5.074;2023-05-27T14:23:50;21.60;52.00
16074;DHT22;8141;52.664;5.074;2023-05-27T14:26:16;21.60;52.20
16074;DHT22;8141;52.664;5.074;2023-05-27T14:28:42;21.60;52.10
16074;DHT22;8141;52.664;5.074;2023-05-27T14:31:08;21.60;52.00
16074;DHT22;8141;52.664;5.074;2023-05-27T14:33:34;21.60;51.90
16074;DHT22;8141;52.664;5.074;2023-05-27T14:35:59;21.60;52.00
16074;DHT22;8141;52.664;5.074;2023-05-27T14:38:25;21.60;51.90
16074;DHT22;8141;52.664;5.074;2023-05-27T14:40:51;21.60;52.10
16074;DHT22;8141;52.664;5.074;2023-05-27T14:43:17;21.60;52.00
16074;DHT22;8141;52.664;5.074;2023-05-27T14:45:42;21.60;52.00
16074;DHT22;8141;52.664;5.074;2023-05-27T14:48:08;21.60;52.10
16074;DHT22;8141;52.664;5.074;2023-05-27T14:50:34;21.60;52.00
16074;DHT22;8141;52.664;5.074;2023-05-27T14:53:00;21.60;51.90
16074;DHT22;8141;52.664;5.074;2023-05-27T14:55:26;21.60;52.00
16074;DHT22;8141;52.664;5.074;2023-05-27T14:57:52;21.60;52.00
16074;DHT22;8141;52.664;5.074;2023-05-27T15:00:18;21.60;52.00
16074;DHT22;8141;52.664;5.074;2023-05-27T15:02:44;21.60;52.10
16074;DHT22;8141;52.664;5.074;2023-05-27T15:05:10;21.60;52.00
16074;DHT22;8141;52.664;5.074;2023-05-27T15:07:37;21.60;52.10
16074;DHT22;8141;52.664;5.074;2023-05-27T15:10:04;21.60;52.10
16074;DHT22;8141;52.664;5.074;2023-05-27T15:12:46;21.60;52.10
16074;DHT22;8141;52.664;5.074;2023-05-27T15:15:18;21.60;52.00
16074;DHT22;8141;52.664;5.074;2023-05-27T15:17:46;21.60;52.20
16074;DHT22;8141;52.664;5.074;2023-05-27T15:20:13;21.60;52.40
16074;DHT22;8141;52.664;5.074;2023-05-27T15:22:40;21.60;52.30
16074;DHT22;8141;52.664;5.074;2023-05-27T15:25:07;21.60;52.30
16074;DHT22;8141;52.664;5.074;2023-05-27T15:27:33;21.60;52.40
16074;DHT22;8141;52.664;5.074;2023-05-27T15:29:59;21.60;52.80
16074;DHT22;8141;52.664;5.074;2023-05-27T15:32:25;21.60;52.80
16074;DHT22;8141;52.664;5.074;2023-05-27T15:34:50;21.60;52.60
16074;DHT22;8141;52.664;5.074;2023-05-27T15:37:17;21.70;52.60
16074;DHT22;8141;52.664;5.074;2023-05-27T15:39:43;21.60;52.90
16074;DHT22;8141;52.664;5.074;2023-05-27T15:42:09;21.60;53.10
16074;DHT22;8141;52.664;5.074;2023-05-27T15:44:34;21.60;53.00
16074;DHT22;8141;52.664;5.074;2023-05-27T15:47:00;21.60;53.50
16074;DHT22;8141;52.664;5.074;2023-05-27T15:49:26;21.60;53.30
16074;DHT22;8141;52.664;5.074;2023-05-27T15:51:52;21.70;53.20
16074;DHT22;8141;52.664;5.074;2023-05-27T15:54:17;21.60;53.10